Time;durP1;ratioP1;P1;durP2;ratioP2;P2;SDS_P1;SDS_P2;PMS_P1;PMS_P2;Temp;Humidity;BMP_temperature;BMP_pressure;BME280_temperature;BME280_humidity;BME280_pressure;Samples;Min_cycle;Max_cycle;Signal;HPM_P1;HPM_P2
2022/01/13 00:00:38;;;;;;;35.65;17.77;;;;;;;1.35;100.00;104072.56;5089958;28;20429;-71
2022/01/13 00:03:04;;;;;;;34.45;16.02;;;;;;;1.41;100.00;104081.09;5089866;28;20020;-70
2022/01/13 00:05:30;;;;;;;34.95;14.20;;;;;;;1.41;100.00;104088.13;5089909;28;20073;-71
2022/01/13 00:07:57;;;;;;;42.60;14.35;;;;;;;1.42;100.00;104093.34;5089731;28;20028;-71
2022/01/13 00:10:25;;;;;;;31.27;14.25;;;;;;;1.39;100.00;104097.81;5089342;28;20030;-71
2022/01/13 00:12:58;;;;;;;34.95;17.50;;;;;;;1.39;100.00;104095.19;5089457;28;20078;-71
2022/01/13 00:15:37;;;;;;;39.17;16.40;;;;;;;1.39;100.00;104101.34;5089733;28;20395;-71
2022/01/13 00:18:36;;;;;;;31.25;12.40;;;;;;;1.40;100.00;104108.31;5089487;28;20028;-71
2022/01/13 00:21:15;;;;;;;44.55;16.52;;;;;;;1.40;100.00;104107.47;5089734;28;20028;-70
2022/01/13 00:23:50;;;;;;;41.20;15.95;;;;;;;1.40;100.00;104110.94;5089551;28;20127;-70
2022/01/13 00:26:24;;;;;;;38.88;15.60;;;;;;;1.42;100.00;104114.38;5089553;28;20908;-71
2022/01/13 00:28:52;;;;;;;38.30;13.27;;;;;;;1.43;100.00;104109.97;5089174;28;20123;-71
2022/01/13 00:31:27;;;;;;;35.03;16.17;;;;;;;1.43;100.00;104118.72;5089475;28;20055;-70
2022/01/13 00:33:54;;;;;;;45.25;16.42;;;;;;;1.40;100.00;104112.72;5088149;28;20391;-71
2022/01/13 00:36:27;;;;;;;37.60;16.60;;;;;;;1.40;100.00;104102.19;5089298;28;20081;-70
2022/01/13 00:38:53;;;;;;;45.13;16.17;;;;;;;1.42;100.00;104095.97;5089593;28;20098;-71
2022/01/13 00:41:20;;;;;;;39.60;14.65;;;;;;;1.45;100.00;104089.72;5089336;28;20036;-71
2022/01/13 00:43:47;;;;;;;37.35;14.85;;;;;;;1.47;100.00;104082.66;5089340;28;20378;-71
2022/01/13 00:46:20;;;;;;;31.63;14.90;;;;;;;1.48;100.00;104081.72;5089456;28;20028;-71
2022/01/13 00:48:46;;;;;;;37.38;13.35;;;;;;;1.49;100.00;104080.78;5089333;28;20031;-71
2022/01/13 00:51:11;;;;;;;42.50;14.57;;;;;;;1.50;100.00;104082.53;5087981;28;20042;-71
2022/01/13 00:53:36;;;;;;;33.40;16.27;;;;;;;1.51;100.00;104076.34;5089337;28;20352;-71
2022/01/13 00:56:02;;;;;;;42.65;17.60;;;;;;;1.50;100.00;104072.00;5089408;28;20044;-71
2022/01/13 00:58:30;;;;;;;36.30;15.68;;;;;;;1.52;100.00;104075.44;5093363;28;20075;-71
2022/01/13 01:00:57;;;;;;;36.67;14.52;;;;;;;1.52;100.00;104075.44;5093356;28;20089;-71
2022/01/13 01:03:23;;;;;;;38.35;15.65;;;;;;;1.49;100.00;104070.28;5093439;28;20433;-71
2022/01/13 01:05:49;;;;;;;33.92;14.70;;;;;;;1.48;100.00;104066.78;5093340;28;20510;-71
2022/01/13 01:08:15;;;;;;;35.17;13.15;;;;;;;1.45;100.00;104064.28;5093198;28;20056;-71
2022/01/13 01:10:41;;;;;;;32.08;14.10;;;;;;;1.40;100.00;104060.97;5093009;28;20036;-71
2022/01/13 01:13:13;;;;;;;31.85;12.10;;;;;;;1.39;100.00;104061.00;5092505;28;20064;-71
2022/01/13 01:15:46;;;;;;;34.72;15.30;;;;;;;1.37;100.00;104057.59;5073723;28;20020;-71
2022/01/13 01:18:24;;;;;;;28.55;11.50;;;;;;;1.39;100.00;104074.16;5092672;28;20024;-71
2022/01/13 01:21:04;;;;;;;34.97;14.57;;;;;;;1.34;100.00;104065.59;5092873;28;20043;-71
2022/01/13 01:23:36;;;;;;;31.15;12.98;;;;;;;1.39;100.00;104074.16;5092801;28;20475;-70
2022/01/13 01:26:19;;;;;;;31.67;13.32;;;;;;;1.39;100.00;104084.69;5092751;28;20077;-71
2022/01/13 01:28:49;;;;;;;31.60;13.80;;;;;;;1.39;100.00;104075.03;5092977;28;20055;-71
2022/01/13 01:31:16;;;;;;;33.20;13.95;;;;;;;1.38;100.00;104070.69;5073374;28;20032;-71
2022/01/13 01:33:50;;;;;;;32.40;12.50;;;;;;;1.34;100.00;104069.09;5073288;28;20119;-71
2022/01/13 01:36:16;;;;;;;30.42;12.30;;;;;;;1.37;100.00;104073.38;5091441;28;20028;-71
2022/01/13 01:38:45;;;;;;;30.08;13.05;;;;;;;1.38;100.00;104069.84;5092826;28;20043;-71
2022/01/13 01:41:10;;;;;;;42.67;14.15;;;;;;;1.38;100.00;104072.47;5073150;28;20060;-71
2022/01/13 01:43:36;;;;;;;33.25;13.98;;;;;;;1.32;100.00;104070.91;5072445;28;20056;-71
2022/01/13 01:46:01;;;;;;;22.58;9.60;;;;;;;1.30;100.00;104064.84;5071756;28;20028;-71
2022/01/13 01:48:29;;;;;;;41.67;13.63;;;;;;;1.35;100.00;104069.94;5073054;28;20032;-71
2022/01/13 01:50:58;;;;;;;31.17;12.23;;;;;;;1.33;100.00;104062.09;5073123;28;20025;-71
2022/01/13 01:53:24;;;;;;;34.70;14.40;;;;;;;1.33;100.00;104070.00;5092054;28;20032;-71
2022/01/13 01:55:52;;;;;;;28.83;12.65;;;;;;;1.33;100.00;104075.25;5073703;28;20114;-71
2022/01/13 01:58:18;;;;;;;30.83;11.30;;;;;;;1.34;100.00;104066.47;5072728;28;20112;-71
2022/01/13 02:00:43;;;;;;;31.30;13.57;;;;;;;1.29;100.00;104071.88;5072802;28;20502;-71
2022/01/13 02:03:09;;;;;;;34.30;14.38;;;;;;;1.33;100.00;104063.88;5072715;28;20036;-71
2022/01/13 02:05:35;;;;;;;32.15;13.73;;;;;;;1.33;100.00;104069.13;5072826;28;20098;-71
2022/01/13 02:08:01;;;;;;;32.75;15.02;;;;;;;1.33;100.00;104071.78;5071499;28;20032;-71
2022/01/13 02:10:27;;;;;;;31.85;11.05;;;;;;;1.32;100.00;104065.66;5072717;28;20107;-71
2022/01/13 02:13:01;;;;;;;25.85;10.43;;;;;;;1.25;100.00;104070.28;5072094;28;20119;-71
2022/01/13 02:17:54;;;;;;;43.28;11.52;;;;;;;1.25;100.00;104075.53;5070264;28;20048;-71
2022/01/13 02:20:20;;;;;;;25.23;10.73;;;;;;;1.23;100.00;104080.00;5072290;28;20495;-71
2022/01/13 02:22:45;;;;;;;25.83;10.73;;;;;;;1.18;100.00;104076.69;5072401;28;20028;-71
2022/01/13 02:25:15;;;;;;;24.52;10.93;;;;;;;1.22;100.00;104080.91;5071108;28;20048;-71
2022/01/13 02:27:41;;;;;;;42.13;11.27;;;;;;;1.21;100.00;104079.19;5091321;28;20020;-71
2022/01/13 02:30:07;;;;;;;25.60;11.93;;;;;;;1.21;100.00;104086.22;5072103;28;20048;-71
2022/01/13 02:32:33;;;;;;;25.85;11.20;;;;;;;1.23;100.00;104081.75;5091185;28;20123;-71
2022/01/13 02:34:58;;;;;;;23.90;9.70;;;;;;;1.19;100.00;104070.50;5091424;28;20102;-71
2022/01/13 02:37:23;;;;;;;31.33;11.75;;;;;;;1.20;100.00;104074.84;5091054;28;20028;-71
2022/01/13 02:39:49;;;;;;;31.23;12.43;;;;;;;1.17;100.00;104074.94;5091491;28;20027;-71
2022/01/13 02:42:14;;;;;;;26.13;11.25;;;;;;;1.20;100.00;104089.75;5091338;28;20032;-71
2022/01/13 02:45:02;;;;;;;31.63;13.82;;;;;;;1.20;100.00;104071.34;5090907;28;20107;-71
2022/01/13 02:47:58;;;;;;;30.70;12.60;;;;;;;1.21;100.00;104067.84;5091132;28;20055;-71
2022/01/13 02:50:21;;;;;;;28.83;11.40;;;;;;;1.21;100.00;104071.31;5090879;28;20028;-71
2022/01/13 02:52:46;;;;;;;34.55;12.10;;;;;;;1.19;100.00;104070.50;5091003;28;20039;-70
2022/01/13 02:55:11;;;;;;;29.05;10.50;;;;;;;1.19;100.00;104067.88;5090966;28;20059;-71
2022/01/13 02:57:39;;;;;;;26.67;10.18;;;;;;;1.17;100.00;104077.59;5091037;28;20034;-71
2022/01/13 03:00:06;;;;;;;29.15;13.88;;;;;;;1.15;100.00;104084.66;5090982;28;20028;-71
2022/01/13 03:02:32;;;;;;;26.75;9.23;;;;;;;1.15;100.00;104083.81;5090549;28;20529;-71
2022/01/13 03:04:58;;;;;;;26.20;10.45;;;;;;;1.14;100.00;104079.47;5090774;28;20028;-71
2022/01/13 03:07:25;;;;;;;27.65;11.85;;;;;;;1.15;100.00;104073.28;5091154;28;20534;-71
2022/01/13 03:09:50;;;;;;;26.05;11.93;;;;;;;1.15;100.00;104068.03;5090630;28;20075;-71
2022/01/13 03:12:17;;;;;;;28.23;11.35;;;;;;;1.14;100.00;104059.28;5090755;28;20020;-71
2022/01/13 03:14:42;;;;;;;25.90;11.57;;;;;;;1.11;100.00;104064.66;5088705;28;20036;-71
2022/01/13 03:17:07;;;;;;;23.58;9.98;;;;;;;1.09;100.00;104063.84;5090602;28;20034;-71
2022/01/13 03:19:33;;;;;;;24.50;8.75;;;;;;;1.08;100.00;104070.03;5090179;28;20123;-71
2022/01/13 03:21:58;;;;;;;24.40;10.48;;;;;;;1.05;100.00;104071.00;5090649;28;20031;-71
2022/01/13 03:24:24;;;;;;;21.25;8.43;;;;;;;1.02;100.00;104064.97;5090672;28;20552;-71
2022/01/13 03:26:50;;;;;;;21.30;7.70;;;;;;;1.02;100.00;104063.25;5090718;28;20024;-71
2022/01/13 03:29:17;;;;;;;22.13;8.05;;;;;;;1.01;100.00;104050.13;5089986;28;20089;-71
2022/01/13 03:31:44;;;;;;;30.20;9.40;;;;;;;1.01;100.00;104042.25;5090530;28;20400;-71
2022/01/13 03:34:11;;;;;;;28.80;11.40;;;;;;;1.02;100.00;104046.59;5090368;28;20032;-71
2022/01/13 03:36:37;;;;;;;27.02;11.00;;;;;;;1.01;100.00;104045.72;5090233;28;20035;-71
2022/01/13 03:39:05;;;;;;;27.48;11.90;;;;;;;1.01;100.00;104048.38;5090654;28;20028;-71
2022/01/13 03:41:31;;;;;;;23.33;9.52;;;;;;;1.03;100.00;104043.06;5070941;28;20077;-71
2022/01/13 03:43:58;;;;;;;28.80;12.50;;;;;;;1.03;100.00;104049.19;5070884;28;20032;-71
2022/01/13 03:46:25;;;;;;;27.38;10.40;;;;;;;0.96;100.00;104034.53;5068833;28;20036;-71
2022/01/13 03:48:50;;;;;;;32.50;11.05;;;;;;;0.98;100.00;104039.75;5089224;28;20032;-71
2022/01/13 03:51:16;;;;;;;30.08;12.15;;;;;;;0.99;100.00;104050.19;5090020;28;20490;-71
2022/01/13 03:54:16;;;;;;;22.00;8.30;;;;;;;1.00;100.00;104051.06;5078447;28;20395;-71
2022/01/13 03:56:53;;;;;;;22.02;9.50;;;;;;;1.00;100.00;104051.06;5035960;28;20048;-71
2022/01/13 03:59:28;;;;;;;25.50;9.88;;;;;;;1.00;100.00;104045.81;5070090;28;20032;-71
2022/01/13 04:02:00;;;;;;;23.25;10.20;;;;;;;1.01;100.00;104053.63;5089442;28;20034;-71
2022/01/13 04:04:30;;;;;;;27.27;12.88;;;;;;;0.99;100.00;104047.56;5089127;28;20030;-71
2022/01/13 04:07:10;;;;;;;24.23;10.35;;;;;;;1.00;100.00;104045.81;5089964;28;20394;-71
2022/01/13 04:09:54;;;;;;;23.38;9.48;;;;;;;1.01;100.00;104047.50;5089703;28;20024;-71
2022/01/13 04:12:20;;;;;;;22.55;10.68;;;;;;;1.00;100.00;104041.41;5089675;28;20088;-71
2022/01/13 04:14:52;;;;;;;28.10;11.55;;;;;;;1.01;100.00;104042.25;5088513;28;20028;-71
2022/01/13 04:17:21;;;;;;;26.13;7.57;;;;;;;1.00;100.00;104036.16;5069840;28;20071;-71
2022/01/13 04:19:47;;;;;;;23.35;8.95;;;;;;;1.02;100.00;104039.59;5089201;28;20031;-71
2022/01/13 04:22:13;;;;;;;48.65;10.30;;;;;;;1.03;100.00;104036.03;5089764;28;20067;-71
2022/01/13 04:24:43;;;;;;;29.38;11.30;;;;;;;1.05;100.00;104030.72;5089482;28;20081;-71
2022/01/13 04:27:10;;;;;;;29.50;9.93;;;;;;;1.04;100.00;104027.22;5089609;28;20418;-71
2022/01/13 04:29:39;;;;;;;29.23;10.20;;;;;;;1.03;100.00;104028.16;5089535;28;20032;-71
2022/01/13 04:32:06;;;;;;;25.13;10.60;;;;;;;1.03;100.00;104022.91;5088878;28;20032;-71
2022/01/13 04:34:32;;;;;;;22.65;8.55;;;;;;;1.01;100.00;104024.72;5089440;28;20036;-71
2022/01/13 04:36:58;;;;;;;34.88;10.80;;;;;;;1.04;100.00;104031.63;5089261;28;20024;-71
2022/01/13 04:39:25;;;;;;;31.15;10.13;;;;;;;1.00;100.00;104023.00;5089272;28;20083;-71
2022/01/13 04:41:53;;;;;;;27.55;10.52;;;;;;;1.06;100.00;104027.19;5088997;28;20031;-71
2022/01/13 04:44:20;;;;;;;31.13;11.15;;;;;;;1.05;100.00;104025.47;5087946;28;20356;-71
2022/01/13 04:46:47;;;;;;;28.65;11.80;;;;;;;1.01;100.00;104016.81;5089199;28;20111;-71
2022/01/13 04:49:13;;;;;;;31.58;11.70;;;;;;;1.03;100.00;104028.16;5088677;28;20514;-71
2022/01/13 04:51:40;;;;;;;33.60;12.30;;;;;;;0.94;100.00;104012.69;5089348;28;20023;-71
2022/01/13 04:54:06;;;;;;;29.65;12.05;;;;;;;1.00;100.00;104030.03;5089268;28;20184;-71
2022/01/13 04:56:45;;;;;;;28.23;12.60;;;;;;;1.04;100.00;104029.00;5088662;28;20044;-71
2022/01/13 04:59:11;;;;;;;31.95;12.68;;;;;;;1.04;100.00;104029.84;5088504;28;20044;-71
2022/01/13 05:01:38;;;;;;;26.85;11.57;;;;;;;0.99;100.00;104026.53;5089004;28;20102;-71
2022/01/13 05:04:05;;;;;;;30.90;14.73;;;;;;;1.05;100.00;104033.38;5089108;28;20131;-71
2022/01/13 05:06:31;;;;;;;29.05;11.55;;;;;;;1.05;100.00;104028.97;5089093;28;20020;-71
2022/01/13 05:08:57;;;;;;;29.30;11.93;;;;;;;1.08;100.00;104038.50;5089071;28;20047;-71
2022/01/13 05:11:23;;;;;;;29.25;12.65;;;;;;;1.10;100.00;104036.66;5088973;28;20074;-71
2022/01/13 05:13:48;;;;;;;28.20;12.50;;;;;;;1.10;100.00;104039.28;5088969;28;20024;-71
2022/01/13 05:16:21;;;;;;;28.88;13.00;;;;;;;1.12;100.00;104041.88;5088570;28;20479;-71
2022/01/13 05:21:25;;;;;;;27.95;11.35;;;;;;;1.15;100.00;104028.59;5089033;28;20036;-71
2022/01/13 05:23:52;;;;;;;33.45;14.07;;;;;;;1.15;100.00;104039.97;5087773;28;20440;-71
2022/01/13 05:26:24;;;;;;;37.20;13.57;;;;;;;1.16;100.00;104038.22;5088948;28;20399;-71
2022/01/13 05:28:49;;;;;;;;;;;;;;;1.17;100.00;104035.53;5089286;28;20028;-71
2022/01/13 05:31:15;;;;;;;30.10;13.27;;;;;;;1.15;100.00;104023.34;5088943;28;19930;-71
2022/01/13 05:33:40;;;;;;;29.50;11.45;;;;;;;1.13;100.00;104015.53;5088883;28;20024;-71
2022/01/13 05:36:06;;;;;;;33.15;13.30;;;;;;;1.15;100.00;104024.19;5089088;28;20063;-71
2022/01/13 05:38:31;;;;;;;26.83;11.45;;;;;;;1.17;100.00;104030.25;5071411;28;20111;-71
2022/01/13 05:40:58;;;;;;;34.85;12.73;;;;;;;1.19;100.00;104028.44;5088768;28;20028;-71
2022/01/13 05:43:24;;;;;;;34.42;14.98;;;;;;;1.18;100.00;104018.84;5090050;28;20051;-71
2022/01/13 05:45:49;;;;;;;30.88;11.73;;;;;;;1.18;100.00;104032.00;5092576;28;20126;-71
2022/01/13 05:48:15;;;;;;;35.20;13.60;;;;;;;1.18;100.00;104039.88;5092606;28;20026;-71
2022/01/13 05:50:40;;;;;;;29.30;10.82;;;;;;;1.15;100.00;104037.34;5091928;28;20528;-71
2022/01/13 05:53:06;;;;;;;33.45;13.13;;;;;;;1.13;100.00;104035.69;5091743;28;20032;-71
2022/01/13 05:55:33;;;;;;;45.33;16.48;;;;;;;1.13;100.00;104030.44;5091974;28;20104;-71
2022/01/13 05:57:58;;;;;;;29.17;10.40;;;;;;;1.07;100.00;104013.13;5092171;28;20024;-71
2022/01/13 06:00:24;;;;;;;30.35;12.02;;;;;;;1.06;100.00;104025.41;5092097;28;20031;-71
2022/01/13 06:02:50;;;;;;;45.00;14.95;;;;;;;1.06;100.00;104030.66;5092220;28;20020;-71
2022/01/13 06:05:18;;;;;;;31.73;11.30;;;;;;;1.07;100.00;104026.25;5090862;28;20437;-71
2022/01/13 06:07:44;;;;;;;34.40;13.07;;;;;;;1.06;100.00;104028.03;5092232;28;20394;-71
2022/01/13 06:10:13;;;;;;;29.42;11.43;;;;;;;1.07;100.00;104032.41;5092174;28;20103;-71
2022/01/13 06:12:38;;;;;;;32.15;11.93;;;;;;;1.07;100.00;104042.91;5072274;28;20031;-71
2022/01/13 06:15:09;;;;;;;36.65;13.18;;;;;;;1.07;100.00;104035.03;5071389;28;20024;-71
2022/01/13 06:17:36;;;;;;;39.10;12.90;;;;;;;1.06;100.00;104037.69;5072313;28;20365;-71
2022/01/13 06:20:04;;;;;;;37.75;13.43;;;;;;;1.07;100.00;104047.28;5091535;28;20028;-71
2022/01/13 06:22:29;;;;;;;38.58;14.65;;;;;;;1.03;100.00;104030.78;5090447;28;20399;-71
2022/01/13 06:24:55;;;;;;;34.17;13.63;;;;;;;1.03;100.00;104027.28;5091589;28;20044;-71
2022/01/13 06:27:22;;;;;;;33.75;12.23;;;;;;;1.04;100.00;104035.09;5091714;28;20361;-71
2022/01/13 06:29:49;;;;;;;38.20;14.95;;;;;;;1.03;100.00;104022.03;5091289;28;20020;-71
2022/01/13 06:32:14;;;;;;;41.65;14.02;;;;;;;1.04;100.00;104023.75;5091658;28;20102;-71
2022/01/13 06:34:40;;;;;;;33.85;13.50;;;;;;;1.02;100.00;104022.94;5084727;28;20036;-71
2022/01/13 06:37:05;;;;;;;38.53;13.82;;;;;;;1.03;100.00;104020.25;5072286;28;20472;-71
2022/01/13 06:39:30;;;;;;;40.38;17.65;;;;;;;1.00;100.00;104019.53;5091379;28;20024;-71
2022/01/13 06:41:56;;;;;;;33.15;13.35;;;;;;;1.04;100.00;104026.38;5091394;28;20023;-71
2022/01/13 06:44:21;;;;;;;38.42;16.60;;;;;;;1.02;100.00;104023.81;5091424;28;20085;-71
2022/01/13 06:46:46;;;;;;;37.83;12.15;;;;;;;1.02;100.00;104010.69;5091426;28;20031;-71
2022/01/13 06:49:12;;;;;;;43.47;15.27;;;;;;;1.07;100.00;104015.75;5089881;28;20036;-71
2022/01/13 06:51:37;;;;;;;35.33;13.90;;;;;;;1.09;100.00;104011.28;5091268;28;20754;-71
2022/01/13 06:54:02;;;;;;;34.53;14.57;;;;;;;1.07;100.00;104011.38;5090355;28;20543;-71
2022/01/13 06:56:29;;;;;;;34.72;13.80;;;;;;;1.06;100.00;104011.41;5072874;28;20056;-71
2022/01/13 06:58:55;;;;;;;32.83;17.20;;;;;;;1.06;100.00;104014.03;5089838;28;20043;-71
2022/01/13 07:01:22;;;;;;;33.63;13.27;;;;;;;1.05;100.00;104007.09;5091084;28;20032;-71
2022/01/13 07:03:47;;;;;;;33.33;12.52;;;;;;;1.09;100.00;104021.81;5090945;28;20101;-71
2022/01/13 07:06:13;;;;;;;31.75;14.93;;;;;;;1.12;100.00;104015.59;5090985;28;20036;-71
2022/01/13 07:08:38;;;;;;;35.00;14.98;;;;;;;1.13;100.00;104017.28;5090846;28;20458;-71
2022/01/13 07:11:04;;;;;;;32.97;12.48;;;;;;;1.10;100.00;104026.13;5090765;28;20032;-71
2022/01/13 07:13:31;;;;;;;41.22;15.07;;;;;;;1.09;100.00;104029.69;5086758;28;20035;-71
2022/01/13 07:15:59;;;;;;;40.15;13.23;;;;;;;1.12;100.00;104040.09;5071419;28;20833;-71
2022/01/13 07:18:25;;;;;;;50.35;16.45;;;;;;;1.13;100.00;104027.78;5071425;28;20031;-71
2022/01/13 07:20:50;;;;;;;37.08;11.10;;;;;;;1.12;100.00;104023.47;5071273;28;20040;-71
2022/01/13 07:23:16;;;;;;;32.78;12.18;;;;;;;1.14;100.00;104021.66;5070741;28;20029;-71
2022/01/13 07:25:41;;;;;;;38.15;13.25;;;;;;;1.12;100.00;104018.22;5069544;28;20444;-71
2022/01/13 07:28:06;;;;;;;39.90;13.15;;;;;;;1.06;100.00;104012.25;5090699;28;20032;-71
2022/01/13 07:30:35;;;;;;;52.85;14.90;;;;;;;1.04;100.00;104005.34;5089320;28;20081;-71
2022/01/13 07:33:00;;;;;;;32.97;13.60;;;;;;;1.08;100.00;104017.47;5088899;28;20039;-71
2022/01/13 07:35:26;;;;;;;34.78;10.77;;;;;;;1.13;100.00;104025.16;5090519;28;20967;-71
2022/01/13 07:37:52;;;;;;;44.10;17.00;;;;;;;1.14;100.00;104024.28;5088835;28;20123;-71
2022/01/13 07:40:17;;;;;;;40.67;15.93;;;;;;;1.12;100.00;104016.44;5089779;28;20028;-71
2022/01/13 07:42:44;;;;;;;32.70;11.90;;;;;;;1.12;100.00;104016.44;5090382;28;20028;-71
2022/01/13 07:45:11;;;;;;;33.85;13.23;;;;;;;1.15;100.00;104018.94;5090143;28;20107;-71
2022/01/13 07:47:37;;;;;;;41.47;13.93;;;;;;;1.12;100.00;104013.81;5090223;28;20036;-71
2022/01/13 07:50:04;;;;;;;37.88;13.40;;;;;;;1.15;100.00;104031.22;5052760;28;20023;-71
2022/01/13 07:52:30;;;;;;;45.47;12.32;;;;;;;1.12;100.00;104032.19;5070549;28;20071;-71
2022/01/13 07:54:55;;;;;;;31.90;13.88;;;;;;;1.15;100.00;104039.13;5069609;28;20113;-71
2022/01/13 07:57:20;;;;;;;39.90;14.18;;;;;;;1.06;100.00;104020.16;5088270;28;20036;-71
2022/01/13 07:59:46;;;;;;;35.03;13.40;;;;;;;1.09;100.00;104033.16;5089889;28;20059;-71
2022/01/13 08:02:11;;;;;;;45.55;13.55;;;;;;;1.13;100.00;104041.81;5090072;28;20056;-71
2022/01/13 08:04:36;;;;;;;28.55;10.45;;;;;;;1.13;100.00;104033.94;5088543;28;20067;-71
2022/01/13 08:07:02;;;;;;;47.05;13.52;;;;;;;1.18;100.00;104036.38;5087748;28;20020;-71
2022/01/13 08:09:27;;;;;;;34.88;13.45;;;;;;;1.16;100.00;104033.81;5088586;28;20032;-71
2022/01/13 08:11:53;;;;;;;41.55;13.70;;;;;;;1.16;100.00;104035.59;5089739;28;20111;-71
2022/01/13 08:14:19;;;;;;;43.78;11.32;;;;;;;1.18;100.00;104031.13;5089549;28;20028;-71
2022/01/13 08:16:45;;;;;;;30.08;11.38;;;;;;;1.19;100.00;104049.47;5089549;28;20031;-71
2022/01/13 08:21:55;;;;;;;32.55;13.35;;;;;;;1.25;100.00;104054.50;5089492;28;20042;-71
2022/01/13 08:24:21;;;;;;;34.10;12.30;;;;;;;1.25;100.00;104048.38;5089637;28;20147;-71
2022/01/13 08:26:46;;;;;;;33.08;10.43;;;;;;;1.20;100.00;104043.28;5088255;28;20082;-71
2022/01/13 08:29:12;;;;;;;39.20;14.35;;;;;;;1.30;100.00;104056.97;5089559;28;20028;-72
2022/01/13 08:31:38;;;;;;;29.30;9.88;;;;;;;1.31;100.00;104061.31;5089378;28;20032;-71
2022/01/13 08:34:03;;;;;;;35.03;14.10;;;;;;;1.33;100.00;104066.50;5088827;28;20391;-71
2022/01/13 08:36:28;;;;;;;37.95;10.88;;;;;;;1.33;100.00;104061.25;5089271;28;20081;-71
2022/01/13 08:38:54;;;;;;;38.13;12.13;;;;;;;1.31;100.00;104067.44;5089310;28;20503;-71
2022/01/13 08:41:19;;;;;;;37.28;13.77;;;;;;;1.33;100.00;104067.38;5089391;28;20016;-71
2022/01/13 08:43:45;;;;;;;29.52;11.45;;;;;;;1.36;100.00;104075.13;5089276;28;20067;-71
2022/01/13 08:46:10;;;;;;;34.75;12.35;;;;;;;1.41;100.00;104077.59;5089537;28;20043;-71
2022/01/13 08:48:36;;;;;;;53.05;12.48;;;;;;;1.43;100.00;104075.78;5088722;28;20028;-71
2022/01/13 08:51:03;;;;;;;43.72;13.60;;;;;;;1.41;100.00;104067.09;5088952;28;20043;-71
2022/01/13 08:53:29;;;;;;;34.75;14.05;;;;;;;1.44;100.00;104070.47;5087767;28;20028;-71
2022/01/13 08:55:55;;;;;;;29.13;11.05;;;;;;;1.48;100.00;104074.69;5088712;28;20329;-71
2022/01/13 08:58:22;;;;;;;28.85;10.95;;;;;;;1.51;100.00;104069.31;5088542;28;20032;-71
2022/01/13 09:00:49;;;;;;;41.00;14.38;;;;;;;1.57;100.00;104078.72;5089151;28;20330;-71
2022/01/13 09:03:15;;;;;;;34.00;12.18;;;;;;;1.59;100.00;104076.06;5089095;28;20032;-71
2022/01/13 09:05:42;;;;;;;31.55;10.70;;;;;;;1.60;100.00;104077.75;5088393;28;20536;-70
2022/01/13 09:08:10;;;;;;;35.20;11.27;;;;;;;1.58;100.00;104063.84;5069982;28;20473;-71
2022/01/13 09:10:38;;;;;;;36.00;12.15;;;;;;;1.65;100.00;104075.81;5069645;28;20024;-71
2022/01/13 09:13:03;;;;;;;29.83;11.48;;;;;;;1.69;100.00;104082.69;5069654;28;20499;-72
2022/01/13 09:17:59;;;;;;;44.60;11.98;;;;;;;1.73;100.00;104069.38;5078721;28;20040;-72
2022/01/13 09:20:25;;;;;;;34.78;13.38;;;;;;;1.79;100.00;104077.94;5086449;28;20036;-71
2022/01/13 09:22:50;;;;;;;34.10;12.93;;;;;;;1.80;100.00;104082.28;5081068;28;20024;-72
2022/01/13 09:25:16;;;;;;;30.00;11.63;;;;;;;1.81;100.00;104086.59;5084800;28;20472;-71
2022/01/13 09:27:42;;;;;;;28.65;11.50;;;;;;;1.78;100.00;104079.69;5085233;28;20016;-71
2022/01/13 09:30:11;;;;;;;33.15;12.75;;;;;;;1.81;100.00;104082.22;5085009;28;20031;-71
2022/01/13 09:32:37;;;;;;;30.80;11.50;;;;;;;1.74;100.00;104068.44;5082419;28;20024;-73
2022/01/13 09:35:05;;;;;;;31.13;11.30;;;;;;;1.82;100.00;104077.81;5076788;28;20043;-70
2022/01/13 09:37:31;;;;;;;34.78;13.25;;;;;;;1.90;100.00;104073.09;5077142;28;20028;-69
2022/01/13 09:39:56;;;;;;;31.35;11.82;;;;;;;1.93;100.00;104081.72;5075637;28;20029;-69
2022/01/13 09:42:23;;;;;;;37.45;15.27;;;;;;;1.90;100.00;104076.59;5076587;28;20040;-70
2022/01/13 09:44:49;;;;;;;33.47;11.50;;;;;;;1.87;100.00;104074.09;5076622;28;20013;-70
2022/01/13 09:47:15;;;;;;;32.58;10.65;;;;;;;1.86;100.00;104071.50;5076862;28;20055;-70
2022/01/13 09:49:43;;;;;;;29.63;11.68;;;;;;;1.92;100.00;104079.19;5077256;28;20063;-70
2022/01/13 09:52:08;;;;;;;29.02;11.40;;;;;;;1.92;100.00;104094.97;5076720;28;20374;-70
2022/01/13 09:54:34;;;;;;;31.70;12.55;;;;;;;1.96;100.00;104093.91;5076129;28;20032;-70
2022/01/13 09:56:59;;;;;;;33.40;12.43;;;;;;;1.98;100.00;104085.03;5076320;28;20060;-73
2022/01/13 09:59:25;;;;;;;31.15;10.35;;;;;;;1.97;100.00;104082.47;5077134;28;20090;-73
2022/01/13 10:01:50;;;;;;;44.78;10.85;;;;;;;1.95;100.00;104082.53;5076229;28;20032;-74
2022/01/13 10:04:15;;;;;;;29.80;13.07;;;;;;;2.02;100.00;104083.16;5077041;28;20535;-71
2022/01/13 10:06:46;;;;;;;33.80;12.60;;;;;;;2.04;100.00;104090.97;5076460;28;20017;-74
2022/01/13 10:09:13;;;;;;;30.33;10.55;;;;;;;2.05;100.00;104092.72;5076369;28;20024;-72
2022/01/13 10:11:54;;;;;;;26.90;8.98;;;;;;;2.07;100.00;104089.09;5075682;28;20024;-71
2022/01/13 10:16:53;;;;;;;;;;;;;;;2.12;100.00;104086.25;5077408;28;20458;-70
2022/01/13 10:19:43;;;;;;;28.65;9.93;;;;;;;2.08;100.00;104071.53;5074646;28;20027;-71
2022/01/13 10:22:08;;;;;;;25.80;12.13;;;;;;;2.13;100.00;104088.84;5072315;28;20036;-72
2022/01/13 10:24:37;;;;;;;31.60;12.27;;;;;;;2.15;100.00;104087.03;5072054;28;20028;-72
2022/01/13 10:27:09;;;;;;;30.52;10.57;;;;;;;2.17;100.00;104074.66;5082532;28;20032;-72
2022/01/13 10:29:56;;;;;;;29.80;11.07;;;;;;;2.22;100.00;104070.97;5090697;28;20020;-72
2022/01/13 10:32:41;;;;;;;26.02;11.52;;;;;;;2.21;100.00;104070.13;5072234;28;20017;-72
2022/01/13 10:35:14;;;;;;;28.10;11.02;;;;;;;2.26;100.00;104076.06;5087343;28;20998;-71
2022/01/13 10:37:46;;;;;;;28.67;10.82;;;;;;;2.29;100.00;104080.34;5082646;28;20025;-72
2022/01/13 10:40:15;;;;;;;27.23;10.52;;;;;;;2.35;100.00;104082.72;5091250;28;20036;-73
2022/01/13 10:45:34;;;;;;;28.80;12.27;;;;;;;2.29;100.00;104067.16;5084781;28;20044;-72
2022/01/13 10:48:18;;;;;;;29.20;12.88;;;;;;;2.35;100.00;104061.63;5091143;28;20020;-74
2022/01/13 10:51:04;;;;;;;32.80;10.93;;;;;;;2.38;100.00;104064.16;5091207;28;20440;-72
2022/01/13 10:53:33;;;;;;;26.65;12.07;;;;;;;2.43;100.00;104062.19;5089939;28;20481;-72
2022/01/13 10:56:10;;;;;;;31.13;11.82;;;;;;;2.39;100.00;104063.25;5090989;28;20055;-72
2022/01/13 10:58:49;;;;;;;24.58;10.32;;;;;;;2.39;100.00;104060.59;5087651;28;20041;-72
2022/01/13 11:01:15;;;;;;;34.47;13.30;;;;;;;2.38;100.00;104061.50;5071187;28;20106;-72
2022/01/13 11:03:43;;;;;;;28.30;13.05;;;;;;;2.41;100.00;104066.63;5063801;28;20471;-72
2022/01/13 11:06:10;;;;;;;27.83;11.40;;;;;;;2.44;100.00;104055.13;5091013;28;20372;-72
2022/01/13 11:08:45;;;;;;;28.85;12.25;;;;;;;2.45;100.00;104060.34;5090975;28;20718;-72
2022/01/13 11:11:45;;;;;;;26.33;10.23;;;;;;;2.47;100.00;104050.59;5090818;28;20024;-72
2022/01/13 11:14:21;;;;;;;35.15;12.43;;;;;;;2.46;100.00;104038.34;5075361;28;20064;-72
2022/01/13 11:16:46;;;;;;;33.58;13.13;;;;;;;2.53;100.00;104049.47;5071904;28;20036;-73
2022/01/13 11:19:15;;;;;;;25.90;9.20;;;;;;;2.52;100.00;104035.47;5072933;28;20029;-73
2022/01/13 11:21:40;;;;;;;27.08;11.27;;;;;;;2.59;100.00;104036.03;5090452;28;20024;-73
2022/01/13 11:24:07;;;;;;;30.55;11.85;;;;;;;2.60;100.00;104037.78;5090442;28;20032;-73
2022/01/13 11:26:34;;;;;;;25.27;9.05;;;;;;;2.59;100.00;104039.56;5090333;28;20093;-73
2022/01/13 11:29:00;;;;;;;24.88;9.25;;;;;;;2.62;100.00;104033.28;5090602;28;20557;-73